Time;durP1;ratioP1;P1;durP2;ratioP2;P2;SDS_P1;SDS_P2;PMS_P1;PMS_P2;Temp;Humidity;BMP_temperature;BMP_pressure;BME280_temperature;BME280_humidity;BME280_pressure;Samples;Min_cycle;Max_cycle;Signal;HPM_P1;HPM_P2
2023/01/23 00:00:19;;;;;;;7.10;6.40;;;;;;;-1.07;100.00;96873.28;5103657;28;24472;-71
2023/01/23 00:02:46;;;;;;;6.68;6.07;;;;;;;-1.16;100.00;96867.34;5095488;28;24437;-71
2023/01/23 00:05:12;;;;;;;7.63;6.82;;;;;;;-1.08;100.00;96865.63;5095848;28;24437;-71
2023/01/23 00:07:39;;;;;;;7.27;6.23;;;;;;;-1.16;100.00;96857.16;5098338;28;24441;-71
2023/01/23 00:10:06;;;;;;;7.60;6.72;;;;;;;-1.30;100.00;96864.78;5103994;28;24433;-71
2023/01/23 00:12:33;;;;;;;7.63;6.47;;;;;;;-1.30;100.00;96857.16;5099453;28;24454;-71
2023/01/23 00:15:01;;;;;;;7.20;6.55;;;;;;;-1.06;100.00;96866.50;5094141;28;24437;-71
2023/01/23 00:17:28;;;;;;;8.23;7.43;;;;;;;-1.33;100.00;96862.25;5096909;28;24449;-70
2023/01/23 00:19:54;;;;;;;7.53;6.82;;;;;;;-1.29;100.00;96854.63;5095164;28;24456;-71
2023/01/23 00:22:21;;;;;;;8.60;7.70;;;;;;;-1.33;100.00;96860.56;5095185;28;24498;-71
2023/01/23 00:24:47;;;;;;;8.52;7.43;;;;;;;-1.34;100.00;96858.84;5102197;28;24434;-71
2023/01/23 00:27:14;;;;;;;9.77;7.47;;;;;;;-1.40;100.00;96866.47;5097703;28;24990;-70
2023/01/23 00:29:40;;;;;;;8.13;7.32;;;;;;;-1.15;100.00;96857.19;5087780;28;24456;-71
2023/01/23 00:32:08;;;;;;;8.80;7.85;;;;;;;-1.23;100.00;96862.25;5095780;28;24834;-71
2023/01/23 00:34:35;;;;;;;7.72;7.03;;;;;;;-1.21;100.00;96854.63;5097369;28;24437;-70
2023/01/23 00:37:01;;;;;;;8.55;7.70;;;;;;;-1.24;100.00;96857.16;5107611;28;24437;-71
2023/01/23 00:39:27;;;;;;;10.43;7.57;;;;;;;-1.06;100.00;96851.25;5096833;28;24461;-71
2023/01/23 00:41:54;;;;;;;8.57;7.70;;;;;;;-0.80;100.00;96854.63;5092715;28;24437;-71
2023/01/23 00:44:20;;;;;;;8.45;7.65;;;;;;;-0.86;100.00;96862.25;5102995;28;24429;-70
2023/01/23 00:46:47;;;;;;;8.93;8.13;;;;;;;-0.81;100.00;96858.03;5088605;28;24442;-71
2023/01/23 00:49:16;;;;;;;10.32;8.80;;;;;;;-1.05;100.00;96860.56;5100023;28;24430;-70
2023/01/23 00:51:43;;;;;;;10.05;8.48;;;;;;;-0.99;100.00;96858.03;5090730;28;24429;-70
2023/01/23 00:54:09;;;;;;;10.65;9.55;;;;;;;-0.96;100.00;96863.13;5093593;28;24438;-71
2023/01/23 00:56:36;;;;;;;10.40;9.40;;;;;;;-1.03;100.00;96861.44;5095369;28;24437;-70
2023/01/23 00:59:02;;;;;;;12.15;10.27;;;;;;;-1.13;100.00;96860.56;5094526;28;24811;-70
2023/01/23 01:01:30;;;;;;;9.45;8.63;;;;;;;-0.95;100.00;96859.72;5102441;28;24438;-71
2023/01/23 01:03:57;;;;;;;10.48;9.45;;;;;;;-0.88;100.00;96865.66;5089548;28;24442;-70
2023/01/23 01:06:25;;;;;;;10.75;9.57;;;;;;;-1.02;100.00;96860.56;5098338;28;24430;-70
2023/01/23 01:08:52;;;;;;;11.55;10.35;;;;;;;-1.09;100.00;96864.78;5092408;28;24805;-71
2023/01/23 01:11:18;;;;;;;11.23;10.20;;;;;;;-1.12;100.00;96861.41;5099567;28;24442;-71
2023/01/23 01:13:45;;;;;;;11.20;10.02;;;;;;;-1.00;100.00;96857.19;5098244;28;24834;-70
2023/01/23 01:16:12;;;;;;;11.60;9.93;;;;;;;-1.10;100.00;96859.72;5099953;28;24978;-70
2023/01/23 01:18:39;;;;;;;10.52;9.52;;;;;;;-1.43;100.00;96863.09;5097216;28;24434;-70
2023/01/23 01:21:07;;;;;;;11.20;10.10;;;;;;;-1.24;100.00;96868.19;5096609;28;24805;-71
2023/01/23 01:23:35;;;;;;;11.30;9.70;;;;;;;-1.26;100.00;96869.88;5103854;28;24465;-71
2023/01/23 01:26:02;;;;;;;10.25;9.15;;;;;;;-1.45;100.00;96883.38;5099142;28;24437;-70
2023/01/23 01:28:30;;;;;;;10.30;8.85;;;;;;;-1.23;100.00;96885.13;5094092;28;25022;-70
2023/01/23 01:30:56;;;;;;;10.20;9.05;;;;;;;-1.35;100.00;96885.09;5091902;28;24461;-71
2023/01/23 01:33:24;;;;;;;11.50;9.25;;;;;;;-1.42;100.00;96880.00;5093969;28;24446;-71
2023/01/23 01:35:51;;;;;;;9.65;8.27;;;;;;;-1.21;100.00;96885.13;5100433;28;24440;-70
2023/01/23 01:38:17;;;;;;;8.70;7.90;;;;;;;-1.18;100.00;96884.31;5098118;28;24437;-71
2023/01/23 01:40:45;;;;;;;8.65;7.88;;;;;;;-1.04;100.00;96895.31;5091902;28;24453;-70
2023/01/23 01:43:18;;;;;;;8.18;7.47;;;;;;;-0.99;100.00;96891.09;5098807;28;24445;-70
2023/01/23 01:46:09;;;;;;;8.30;7.38;;;;;;;-1.33;100.00;96891.06;5102539;28;24433;-71
2023/01/23 01:48:40;;;;;;;8.00;7.20;;;;;;;-1.30;100.00;96888.53;5091438;28;24443;-71
2023/01/23 01:51:10;;;;;;;8.32;7.53;;;;;;;-1.14;100.00;96891.94;5097154;28;24441;-71
2023/01/23 01:53:38;;;;;;;7.65;6.95;;;;;;;-1.23;100.00;96890.19;5094909;28;24435;-71
2023/01/23 01:56:09;;;;;;;7.77;6.97;;;;;;;-1.36;100.00;96895.28;5100982;28;24429;-70
2023/01/23 01:58:37;;;;;;;7.70;7.00;;;;;;;-1.27;100.00;96901.22;5102739;28;25025;-70
2023/01/23 02:01:04;;;;;;;7.90;7.10;;;;;;;-1.34;100.00;96896.97;5102607;28;24493;-71
2023/01/23 02:03:30;;;;;;;10.60;7.30;;;;;;;-1.51;100.00;96899.47;5094783;28;24430;-70
2023/01/23 02:05:57;;;;;;;7.72;6.93;;;;;;;-1.41;100.00;96894.41;5090052;28;24433;-70
2023/01/23 02:08:45;;;;;;;7.60;6.85;;;;;;;-1.40;100.00;96902.06;5096980;28;24819;-70
2023/01/23 02:11:14;;;;;;;8.27;7.53;;;;;;;-1.42;100.00;96908.81;5096970;28;24430;-71
2023/01/23 02:13:41;;;;;;;8.00;7.05;;;;;;;-1.50;100.00;96913.03;5100576;28;24524;-71
2023/01/23 02:16:10;;;;;;;9.88;7.82;;;;;;;-1.39;100.00;96907.97;5097825;28;24537;-71
2023/01/23 02:18:41;;;;;;;10.50;7.63;;;;;;;-1.28;100.00;96911.38;5096504;28;24979;-70
2023/01/23 02:21:08;;;;;;;8.75;7.90;;;;;;;-1.20;100.00;96919.03;5096237;28;24504;-70
2023/01/23 02:23:45;;;;;;;9.23;8.23;;;;;;;-1.16;100.00;96921.56;5103756;28;24441;-71
2023/01/23 02:26:17;;;;;;;9.25;8.35;;;;;;;-1.16;100.00;96915.63;5092958;28;24784;-70
2023/01/23 02:28:46;;;;;;;8.65;7.85;;;;;;;-1.33;100.00;96910.53;5094436;28;24440;-70
2023/01/23 02:31:14;;;;;;;9.05;8.13;;;;;;;-1.44;100.00;96905.44;5087832;28;24433;-70
2023/01/23 02:33:52;;;;;;;9.68;8.70;;;;;;;-1.51;100.00;96901.19;5095893;28;24441;-70
2023/01/23 02:36:21;;;;;;;9.80;8.90;;;;;;;-1.37;100.00;96903.72;5091224;28;24442;-71
2023/01/23 02:38:54;;;;;;;9.68;8.77;;;;;;;-1.27;100.00;96896.13;5094231;28;24434;-70
2023/01/23 02:41:27;;;;;;;9.35;8.40;;;;;;;-1.46;100.00;96894.41;5094277;28;24511;-70
2023/01/23 02:43:55;;;;;;;9.53;8.53;;;;;;;-1.35;100.00;96902.06;5103606;28;24799;-71
2023/01/23 02:46:24;;;;;;;10.00;9.00;;;;;;;-1.39;100.00;96901.19;5095562;28;24457;-71
2023/01/23 02:48:50;;;;;;;10.10;8.83;;;;;;;-1.46;100.00;96902.88;5100542;28;24529;-70
2023/01/23 02:51:17;;;;;;;10.48;9.38;;;;;;;-1.52;100.00;96896.91;5093826;28;24437;-71
2023/01/23 02:53:44;;;;;;;9.82;8.93;;;;;;;-1.43;100.00;96891.88;5087692;28;24442;-71
2023/01/23 02:56:10;;;;;;;13.55;9.43;;;;;;;-1.39;100.00;96885.09;5100308;28;24441;-71
2023/01/23 03:01:23;;;;;;;9.90;8.93;;;;;;;-1.23;100.00;96891.91;5099432;28;24449;-70
2023/01/23 03:03:52;;;;;;;10.40;9.50;;;;;;;-1.05;100.00;96893.63;5094426;28;24941;-70
2023/01/23 03:06:19;;;;;;;10.13;9.13;;;;;;;-1.26;100.00;96897.84;5098805;28;24558;-71
2023/01/23 03:08:48;;;;;;;12.55;9.40;;;;;;;-1.38;100.00;96900.34;5092235;28;24437;-71
2023/01/23 03:11:16;;;;;;;11.88;9.95;;;;;;;-1.28;100.00;96901.22;5105822;28;25022;-70
2023/01/23 03:13:44;;;;;;;11.00;9.45;;;;;;;-1.24;100.00;96895.28;5101875;28;24441;-70
2023/01/23 03:16:11;;;;;;;11.05;9.75;;;;;;;-1.14;100.00;96897.00;5101798;28;25002;-70
2023/01/23 03:18:38;;;;;;;11.43;10.32;;;;;;;-1.41;100.00;96900.34;5099103;28;24438;-70
2023/01/23 03:21:05;;;;;;;10.38;9.35;;;;;;;-1.24;100.00;96895.28;5100995;28;24446;-71
2023/01/23 03:23:32;;;;;;;11.43;10.23;;;;;;;-1.35;100.00;96905.44;5100673;28;24453;-70
2023/01/23 03:25:59;;;;;;;11.77;10.20;;;;;;;-1.47;100.00;96902.88;5101517;28;24523;-71
2023/01/23 03:31:11;;;;;;;11.95;10.75;;;;;;;-1.22;100.00;96908.88;5082287;28;24476;-71
2023/01/23 03:33:41;;;;;;;11.48;10.38;;;;;;;-1.47;100.00;96895.25;5099622;28;25023;-70
2023/01/23 03:36:08;;;;;;;12.77;11.55;;;;;;;-1.18;100.00;96902.09;5109799;28;24532;-71
2023/01/23 03:38:35;;;;;;;12.52;11.32;;;;;;;-1.12;100.00;96894.44;5094884;28;24809;-71
2023/01/23 03:43:45;;;;;;;13.23;11.38;;;;;;;-1.25;100.00;96902.06;5105267;28;24441;-71
2023/01/23 03:46:13;;;;;;;12.85;11.65;;;;;;;-1.17;100.00;96894.47;5100258;28;24434;-71
2023/01/23 03:48:39;;;;;;;12.88;11.57;;;;;;;-1.22;100.00;96901.25;5101172;28;24448;-71
2023/01/23 03:51:06;;;;;;;13.65;12.10;;;;;;;-1.06;100.00;96895.31;5098903;28;24430;-70
2023/01/23 03:53:33;;;;;;;13.45;12.05;;;;;;;-1.11;100.00;96893.59;5090391;28;24527;-70
2023/01/23 03:56:00;;;;;;;13.23;11.88;;;;;;;-1.37;100.00;96888.47;5104063;28;24432;-71
2023/01/23 03:58:26;;;;;;;14.35;12.88;;;;;;;-1.35;100.00;96890.19;5091517;28;24438;-70
2023/01/23 04:00:53;;;;;;;14.00;12.43;;;;;;;-1.24;100.00;96891.06;5106172;28;24544;-70
2023/01/23 04:03:21;;;;;;;14.27;12.77;;;;;;;-0.90;100.00;96897.84;5097522;28;24438;-71
2023/01/23 04:05:48;;;;;;;15.70;14.10;;;;;;;-0.91;100.00;96896.16;5095569;28;24441;-71
2023/01/23 04:08:14;;;;;;;15.93;13.75;;;;;;;-1.05;100.00;96894.47;5094558;28;24466;-70
2023/01/23 04:10:41;;;;;;;17.80;13.73;;;;;;;-1.18;100.00;96902.09;5098738;28;24454;-71
2023/01/23 04:13:07;;;;;;;16.23;14.50;;;;;;;-1.13;100.00;96903.78;5097268;28;24449;-70
2023/01/23 04:15:34;;;;;;;16.73;15.00;;;;;;;-1.00;100.00;96914.81;5095679;28;25034;-71
2023/01/23 04:18:00;;;;;;;15.73;14.00;;;;;;;-1.32;100.00;96913.06;5099798;28;24441;-71
2023/01/23 04:20:28;;;;;;;16.95;14.63;;;;;;;-1.23;100.00;96918.16;5098163;28;24465;-71
2023/01/23 04:22:55;;;;;;;17.35;14.48;;;;;;;-1.25;100.00;96913.94;5103097;28;24445;-70
2023/01/23 04:25:22;;;;;;;16.05;14.45;;;;;;;-0.98;100.00;96915.66;5104839;28;24456;-70
2023/01/23 04:27:48;;;;;;;17.20;15.50;;;;;;;-0.87;100.00;96929.22;5092136;28;24444;-71
2023/01/23 04:30:15;;;;;;;16.63;14.95;;;;;;;-0.91;100.00;96924.16;5090685;28;24430;-71
2023/01/23 04:32:41;;;;;;;17.15;15.45;;;;;;;-1.12;100.00;96924.97;5105397;28;24441;-70
2023/01/23 04:35:08;;;;;;;16.40;14.57;;;;;;;-1.10;100.00;96925.81;5090189;28;25022;-71
2023/01/23 04:37:36;;;;;;;17.50;15.65;;;;;;;-0.99;100.00;96924.97;5104226;28;24472;-71
2023/01/23 04:40:02;;;;;;;19.08;15.30;;;;;;;-1.27;100.00;96930.88;5095229;28;24450;-70
2023/01/23 04:42:29;;;;;;;17.77;15.07;;;;;;;-1.40;100.00;96930.00;5104031;28;25021;-70
2023/01/23 04:44:55;;;;;;;16.58;14.88;;;;;;;-1.27;100.00;96929.16;5099311;28;24791;-70
2023/01/23 04:47:22;;;;;;;16.17;14.45;;;;;;;-1.35;100.00;96932.53;5086711;28;24804;-70
2023/01/23 04:49:48;;;;;;;17.38;14.88;;;;;;;-1.33;100.00;96941.03;5103873;28;24440;-71
2023/01/23 04:52:15;;;;;;;16.55;14.95;;;;;;;-1.32;100.00;96946.13;5095556;28;24435;-71
2023/01/23 04:54:43;;;;;;;19.83;15.33;;;;;;;-1.39;100.00;96938.47;5104565;28;24465;-70
2023/01/23 04:57:09;;;;;;;18.40;15.48;;;;;;;-1.42;100.00;96935.91;5095197;28;25007;-71
2023/01/23 04:59:35;;;;;;;17.85;15.95;;;;;;;-1.25;100.00;96924.94;5103372;28;24441;-71
2023/01/23 05:02:02;;;;;;;16.27;14.68;;;;;;;-1.41;100.00;96935.06;5096656;28;24988;-71
2023/01/23 05:04:28;;;;;;;17.50;15.23;;;;;;;-1.35;100.00;96937.63;5089861;28;24462;-71
2023/01/23 05:06:55;;;;;;;17.00;15.30;;;;;;;-1.24;100.00;96934.25;5104444;28;24441;-70
2023/01/23 05:09:21;;;;;;;17.20;15.40;;;;;;;-1.30;100.00;96936.81;5089929;28;24439;-71
2023/01/23 05:11:49;;;;;;;18.02;16.23;;;;;;;-1.08;100.00;96944.44;5096330;28;24434;-70
2023/01/23 05:14:16;;;;;;;17.83;15.93;;;;;;;-1.32;100.00;96940.19;5093367;28;24445;-70
2023/01/23 05:16:42;;;;;;;17.20;15.43;;;;;;;-1.33;100.00;96941.03;5104809;28;25001;-71
2023/01/23 05:19:08;;;;;;;19.10;16.02;;;;;;;-1.34;100.00;96940.16;5096431;28;24915;-72
2023/01/23 05:21:35;;;;;;;22.80;17.42;;;;;;;-1.12;100.00;96942.75;5090058;28;24804;-71
2023/01/23 05:24:02;;;;;;;18.92;16.77;;;;;;;-1.34;100.00;96940.16;5093391;28;24445;-71
2023/01/23 05:26:28;;;;;;;17.55;15.75;;;;;;;-1.08;100.00;96944.44;5094163;28;24449;-71
2023/01/23 05:28:56;;;;;;;17.80;16.00;;;;;;;-1.08;100.00;96944.44;5093062;28;24953;-70
2023/01/23 05:31:22;;;;;;;21.08;17.27;;;;;;;-0.79;100.00;96949.56;5089610;28;24863;-71
2023/01/23 05:33:49;;;;;;;19.83;16.87;;;;;;;-1.07;100.00;96946.19;5085766;28;24433;-72
2023/01/23 05:36:15;;;;;;;18.88;16.05;;;;;;;-1.27;100.00;96951.19;5081075;28;24439;-71
2023/01/23 05:38:42;;;;;;;21.15;16.88;;;;;;;-1.11;100.00;96949.53;5092510;28;25006;-72
2023/01/23 05:41:08;;;;;;;21.85;16.75;;;;;;;-1.34;100.00;96949.47;5096306;28;24842;-71
2023/01/23 05:43:35;;;;;;;18.60;16.63;;;;;;;-1.29;100.00;96946.13;5102461;28;24441;-72
2023/01/23 05:46:03;;;;;;;17.38;15.65;;;;;;;-1.40;100.00;96946.94;5100056;28;24430;-71
2023/01/23 05:48:29;;;;;;;18.02;15.55;;;;;;;-1.31;100.00;96941.88;5097364;28;24465;-71
2023/01/23 05:50:56;;;;;;;18.13;16.15;;;;;;;-1.42;100.00;96941.00;5100377;28;24441;-72
2023/01/23 05:53:23;;;;;;;16.75;15.05;;;;;;;-1.31;100.00;96946.97;5093667;28;24632;-72
2023/01/23 05:55:49;;;;;;;18.13;16.25;;;;;;;-1.30;100.00;96943.56;5093258;28;24448;-71
2023/01/23 05:58:16;;;;;;;18.98;16.55;;;;;;;-1.38;100.00;96941.00;5097833;28;24446;-72
2023/01/23 06:00:42;;;;;;;18.33;16.55;;;;;;;-1.40;100.00;96941.88;5098670;28;24449;-71
2023/01/23 06:03:10;;;;;;;18.13;15.45;;;;;;;-1.20;100.00;96945.28;5088823;28;24441;-71
2023/01/23 06:05:36;;;;;;;18.10;15.02;;;;;;;-1.29;100.00;96946.13;5083984;28;24437;-72
2023/01/23 06:08:03;;;;;;;18.17;14.98;;;;;;;-1.13;100.00;96944.44;5084789;28;24992;-72
2023/01/23 06:10:30;;;;;;;17.30;14.50;;;;;;;-1.19;100.00;96943.59;5095055;28;24438;-72
2023/01/23 06:12:56;;;;;;;18.23;14.80;;;;;;;-1.33;100.00;96941.88;5099858;28;24437;-72
2023/01/23 06:15:23;;;;;;;15.87;14.23;;;;;;;-1.24;100.00;96943.59;5087481;28;24823;-71
2023/01/23 06:17:49;;;;;;;16.05;14.50;;;;;;;-0.94;100.00;96947.03;5099647;28;24433;-71
2023/01/23 06:20:17;;;;;;;16.52;14.90;;;;;;;-1.01;100.00;96956.34;5103851;28;24434;-71
2023/01/23 06:22:44;;;;;;;16.65;14.23;;;;;;;-1.15;100.00;96948.72;5087075;28;24434;-71
2023/01/23 06:25:10;;;;;;;16.73;14.85;;;;;;;-1.15;100.00;96956.34;5099549;28;24438;-73
2023/01/23 06:27:37;;;;;;;18.98;14.57;;;;;;;-1.33;100.00;96954.59;5089795;28;24998;-72
2023/01/23 06:30:04;;;;;;;16.33;14.07;;;;;;;-1.26;100.00;96961.38;5078431;28;24968;-73
2023/01/23 06:32:31;;;;;;;17.75;15.02;;;;;;;-1.21;100.00;96966.47;5098783;28;24913;-73
2023/01/23 06:34:57;;;;;;;16.80;15.07;;;;;;;-1.06;100.00;96970.75;5099043;28;24434;-71
2023/01/23 06:37:25;;;;;;;18.05;16.15;;;;;;;-1.17;100.00;96980.03;5106805;28;24440;-72
2023/01/23 06:39:51;;;;;;;19.57;16.37;;;;;;;-1.10;100.00;96981.75;5093070;28;24453;-71
2023/01/23 06:42:18;;;;;;;16.15;14.55;;;;;;;-1.14;100.00;96987.69;5098550;28;24460;-71
2023/01/23 06:44:44;;;;;;;16.35;14.77;;;;;;;-1.30;100.00;96987.66;5093208;28;24429;-72
2023/01/23 06:47:11;;;;;;;17.02;15.23;;;;;;;-1.30;100.00;96996.94;5079771;28;24438;-72
2023/01/23 06:49:37;;;;;;;15.75;14.15;;;;;;;-1.17;100.00;97001.22;5099045;28;24992;-72
2023/01/23 06:52:04;;;;;;;17.88;14.98;;;;;;;-1.23;100.00;96994.41;5086109;28;24427;-72
2023/01/23 06:54:32;;;;;;;16.70;15.00;;;;;;;-1.11;100.00;97001.25;5096843;28;25017;-72
2023/01/23 06:56:58;;;;;;;17.40;15.20;;;;;;;-1.29;100.00;97001.19;5095685;28;24861;-71
2023/01/23 06:59:25;;;;;;;17.10;14.57;;;;;;;-1.33;100.00;96999.50;5096202;28;24440;-72
2023/01/23 07:01:51;;;;;;;17.67;15.27;;;;;;;-1.34;100.00;97013.88;5100362;28;24448;-72
2023/01/23 07:04:18;;;;;;;17.10;15.32;;;;;;;-1.28;100.00;97008.81;5081194;28;24450;-74
2023/01/23 07:06:44;;;;;;;16.73;14.93;;;;;;;-1.20;100.00;97005.44;5097785;28;25389;-72
2023/01/23 07:09:11;;;;;;;17.30;15.47;;;;;;;-1.36;100.00;97010.47;5086397;28;24430;-75
2023/01/23 07:11:39;;;;;;;17.30;14.65;;;;;;;-1.31;100.00;97018.13;5101422;28;24434;-73
2023/01/23 07:14:06;;;;;;;16.35;14.55;;;;;;;-1.07;100.00;97019.91;5095711;28;25009;-72
2023/01/23 07:16:34;;;;;;;16.55;14.85;;;;;;;-1.23;100.00;97019.84;5092998;28;24891;-72
2023/01/23 07:19:01;;;;;;;16.02;14.50;;;;;;;-1.19;100.00;97020.69;5087895;28;24437;-71
2023/01/23 07:21:27;;;;;;;16.92;15.10;;;;;;;-1.25;100.00;97013.06;5093274;28;25077;-72
2023/01/23 07:23:54;;;;;;;16.13;14.43;;;;;;;-1.30;100.00;97025.75;5098786;28;24445;-72
2023/01/23 07:26:20;;;;;;;16.73;14.43;;;;;;;-1.39;100.00;97029.94;5099839;28;24433;-72
2023/01/23 07:28:48;;;;;;;17.00;15.20;;;;;;;-1.09;100.00;97036.84;5098838;28;24433;-72
2023/01/23 07:31:15;;;;;;;18.38;15.48;;;;;;;-1.24;100.00;97030.84;5089759;28;24440;-72
2023/01/23 07:33:41;;;;;;;19.55;15.77;;;;;;;-1.10;100.00;97032.59;5100152;28;24825;-71
2023/01/23 07:36:09;;;;;;;17.48;15.63;;;;;;;-1.08;100.00;97039.38;5092078;28;24437;-72
2023/01/23 07:38:36;;;;;;;17.83;15.93;;;;;;;-1.28;100.00;97041.00;5096535;28;24431;-70
2023/01/23 07:41:02;;;;;;;17.98;15.73;;;;;;;-1.29;100.00;97047.78;5104404;28;24449;-72
2023/01/23 07:43:29;;;;;;;19.00;15.83;;;;;;;-1.37;100.00;97039.28;5091299;28;24442;-72
2023/01/23 07:45:58;;;;;;;16.85;15.05;;;;;;;-1.24;100.00;97040.19;5098029;28;24437;-72
2023/01/23 07:48:24;;;;;;;18.40;16.23;;;;;;;-1.13;100.00;97033.44;5081392;28;24438;-72
2023/01/23 07:50:51;;;;;;;18.02;16.13;;;;;;;-1.35;100.00;97035.03;5101273;28;24438;-72
2023/01/23 07:53:17;;;;;;;17.92;15.95;;;;;;;-1.32;100.00;97044.38;5102713;28;25047;-73
2023/01/23 07:55:44;;;;;;;18.58;16.00;;;;;;;-1.21;100.00;97037.66;5095674;28;24440;-72
2023/01/23 07:58:10;;;;;;;18.47;16.47;;;;;;;-1.18;100.00;97036.81;5080483;28;24430;-73
2023/01/23 08:00:40;;;;;;;19.67;17.58;;;;;;;-1.17;100.00;97038.50;5084490;28;24434;-73
2023/01/23 08:03:08;;;;;;;18.88;16.80;;;;;;;-1.20;100.00;97041.88;5094595;28;24438;-73
2023/01/23 08:05:34;;;;;;;17.88;16.10;;;;;;;-1.16;100.00;97042.75;5088895;28;24439;-74
2023/01/23 08:08:01;;;;;;;19.75;17.60;;;;;;;-1.16;100.00;97040.19;5089868;28;24441;-73
2023/01/23 08:10:27;;;;;;;18.80;16.85;;;;;;;-1.13;100.00;97035.13;5087317;28;24443;-73
2023/01/23 08:12:54;;;;;;;19.95;16.70;;;;;;;-1.27;100.00;97032.53;5089725;28;24437;-72
2023/01/23 08:15:20;;;;;;;20.85;16.88;;;;;;;-1.10;100.00;97036.00;5088111;28;24442;-73
2023/01/23 08:17:47;;;;;;;19.40;16.98;;;;;;;-1.16;100.00;97042.75;5076178;28;24991;-74
2023/01/23 08:20:15;;;;;;;21.58;17.75;;;;;;;-1.23;100.00;97040.16;5073630;28;24431;-73
2023/01/23 08:22:42;;;;;;;20.05;17.88;;;;;;;-1.27;100.00;97040.16;5082763;28;24826;-73
2023/01/23 08:25:09;;;;;;;21.52;19.27;;;;;;;-0.97;100.00;97041.94;5078938;28;24450;-74
2023/01/23 08:27:36;;;;;;;21.15;18.55;;;;;;;-1.01;100.00;97033.47;5080428;28;24433;-73
2023/01/23 08:30:03;;;;;;;24.75;18.65;;;;;;;-1.09;100.00;97032.59;5088890;28;24445;-74
2023/01/23 08:32:30;;;;;;;21.83;18.17;;;;;;;-1.14;100.00;97034.28;5093750;28;24441;-74
2023/01/23 08:34:56;;;;;;;21.98;18.83;;;;;;;-1.09;100.00;97034.28;5095288;28;24454;-72
2023/01/23 08:37:24;;;;;;;21.10;18.58;;;;;;;-1.07;100.00;97030.91;5097882;28;24446;-72
2023/01/23 08:39:50;;;;;;;20.38;18.17;;;;;;;-1.22;100.00;97023.25;5097839;28;24429;-72
2023/01/23 08:42:17;;;;;;;22.13;17.95;;;;;;;-1.05;100.00;97031.75;5091203;28;24449;-72
2023/01/23 08:44:43;;;;;;;24.40;19.02;;;;;;;-0.87;100.00;97040.28;5101918;28;24444;-72
2023/01/23 08:47:10;;;;;;;22.57;18.17;;;;;;;-0.93;100.00;97036.03;5099732;28;24441;-73
2023/01/23 08:49:36;;;;;;;21.25;17.60;;;;;;;-1.11;100.00;97029.22;5097976;28;24433;-73
2023/01/23 08:52:04;;;;;;;20.52;18.42;;;;;;;-0.90;100.00;97035.19;5081377;28;24438;-73
2023/01/23 08:54:32;;;;;;;22.00;17.95;;;;;;;-0.97;100.00;97029.22;5101196;28;24507;-72
2023/01/23 08:56:59;;;;;;;21.58;18.50;;;;;;;-1.02;100.00;97031.78;5089758;28;24801;-72
2023/01/23 08:59:26;;;;;;;21.88;18.02;;;;;;;-0.97;100.00;97032.63;5096638;28;24436;-73
2023/01/23 09:01:52;;;;;;;20.05;17.45;;;;;;;-1.00;100.00;97025.00;5096993;28;24808;-73
2023/01/23 09:04:19;;;;;;;23.10;17.97;;;;;;;-0.95;100.00;97029.25;5090090;28;24439;-72
2023/01/23 09:06:45;;;;;;;20.15;17.90;;;;;;;-1.23;100.00;97035.09;5103759;28;24441;-72
2023/01/23 09:09:12;;;;;;;23.08;17.63;;;;;;;-0.94;100.00;97036.03;5093691;28;24437;-73
2023/01/23 09:11:39;;;;;;;22.98;18.35;;;;;;;-0.75;100.00;97040.31;5089666;28;24899;-73
2023/01/23 09:14:06;;;;;;;24.10;18.52;;;;;;;-0.67;100.00;97053.03;5088013;28;24435;-73
2023/01/23 09:16:32;;;;;;;22.60;18.85;;;;;;;-0.68;100.00;97047.09;5103144;28;25022;-74
2023/01/23 09:18:59;;;;;;;21.13;18.30;;;;;;;-0.68;100.00;97054.72;5096921;28;24469;-73
2023/01/23 09:21:25;;;;;;;23.50;17.85;;;;;;;-0.79;100.00;97057.25;5085476;28;24450;-73
2023/01/23 09:23:52;;;;;;;21.67;16.83;;;;;;;-0.71;100.00;97061.50;5098108;28;24445;-73
2023/01/23 09:26:18;;;;;;;22.08;16.98;;;;;;;-0.66;100.00;97054.75;5102345;28;24434;-71
2023/01/23 09:28:46;;;;;;;18.20;15.95;;;;;;;-0.87;100.00;97048.75;5106380;28;24792;-73
2023/01/23 09:31:13;;;;;;;22.53;15.60;;;;;;;-0.71;100.00;97047.09;5095457;28;24442;-73
2023/01/23 09:33:40;;;;;;;16.47;14.77;;;;;;;-0.69;100.00;97047.97;5090756;28;24438;-73
2023/01/23 09:36:08;;;;;;;17.13;15.20;;;;;;;-0.53;100.00;97038.66;5090447;28;24465;-72
2023/01/23 09:38:35;;;;;;;19.60;15.43;;;;;;;-0.69;100.00;97044.56;5094863;28;24437;-73
2023/01/23 09:41:09;;;;;;;16.17;14.50;;;;;;;-0.55;100.00;97048.00;5096315;28;24452;-72
2023/01/23 09:43:41;;;;;;;16.55;13.90;;;;;;;-0.79;100.00;97044.53;5103984;28;25050;-74
2023/01/23 09:46:19;;;;;;;18.02;14.73;;;;;;;-0.41;100.00;97042.88;5094168;28;24991;-73
2023/01/23 09:48:46;;;;;;;21.50;14.90;;;;;;;-0.42;100.00;97047.13;5099322;28;24437;-73
2023/01/23 09:51:21;;;;;;;15.93;14.13;;;;;;;-0.57;100.00;97052.22;5092813;28;24449;-73
2023/01/23 09:53:48;;;;;;;15.07;13.52;;;;;;;-0.38;100.00;97045.44;5098569;28;24438;-73
2023/01/23 09:56:28;;;;;;;15.77;13.63;;;;;;;-0.44;100.00;97055.63;5095160;28;24437;-73
2023/01/23 09:59:02;;;;;;;19.58;13.68;;;;;;;-0.43;100.00;97048.00;5093154;28;24461;-74
2023/01/23 10:01:31;;;;;;;18.10;13.35;;;;;;;-0.55;100.00;97043.75;5089442;28;24434;-73
2023/01/23 10:03:59;;;;;;;16.38;13.02;;;;;;;-0.50;100.00;97041.19;5097613;28;24453;-73
2023/01/23 10:06:29;;;;;;;15.88;13.20;;;;;;;-0.41;100.00;97051.38;5092338;28;24521;-74
2023/01/23 10:09:16;;;;;;;17.80;12.90;;;;;;;-0.41;100.00;97046.28;5097243;28;24434;-74
2023/01/23 10:11:56;;;;;;;16.02;13.63;;;;;;;-0.49;100.00;97064.09;5090271;28;24970;-73
2023/01/23 10:14:50;;;;;;;14.77;13.13;;;;;;;-0.59;100.00;97057.31;5097936;28;24426;-73
2023/01/23 10:17:25;;;;;;;16.48;12.40;;;;;;;-0.75;100.00;97060.66;5094179;28;24426;-73
2023/01/23 10:20:24;;;;;;;15.18;12.25;;;;;;;-0.70;100.00;97068.28;5101396;28;24438;-71
2023/01/23 10:23:03;;;;;;;17.25;13.32;;;;;;;-0.74;100.00;97064.91;5084864;28;24454;-73
2023/01/23 10:25:36;;;;;;;15.65;12.43;;;;;;;-0.69;100.00;97070.00;5104645;28;24449;-73
2023/01/23 10:28:18;;;;;;;14.48;12.50;;;;;;;-0.79;100.00;97053.88;5095192;28;24867;-73
2023/01/23 10:30:49;;;;;;;14.88;12.45;;;;;;;-0.90;100.00;97056.38;5098427;28;24438;-73
2023/01/23 10:33:19;;;;;;;15.23;12.07;;;;;;;-0.90;100.00;97056.38;5092881;28;24445;-73
2023/01/23 10:35:49;;;;;;;15.77;13.20;;;;;;;-0.63;100.00;97064.91;5093219;28;24429;-74
2023/01/23 10:38:25;;;;;;;17.73;12.43;;;;;;;-0.70;100.00;97068.28;5102860;28;24955;-73
2023/01/23 10:43:36;;;;;;;17.13;13.55;;;;;;;-1.02;100.00;97051.25;5091467;28;24470;-73
2023/01/23 10:46:09;;;;;;;14.27;12.75;;;;;;;-0.75;100.00;97058.97;5102438;28;24469;-73
2023/01/23 10:48:44;;;;;;;16.33;13.10;;;;;;;-0.73;100.00;97052.19;5090308;28;24491;-74
2023/01/23 10:51:43;;;;;;;16.75;13.10;;;;;;;-0.43;100.00;97057.31;5093321;28;24430;-72
2023/01/23 10:54:17;;;;;;;19.10;13.65;;;;;;;-0.68;100.00;97044.56;5098758;28;24441;-73
2023/01/23 10:56:54;;;;;;;14.82;12.50;;;;;;;-0.73;100.00;97044.56;5102936;28;24788;-72
2023/01/23 10:59:33;;;;;;;14.60;13.00;;;;;;;-0.59;100.00;97042.03;5094521;28;24437;-73
2023/01/23 11:02:04;;;;;;;14.85;13.00;;;;;;;-0.43;100.00;97042.91;5088772;28;25033;-73
2023/01/23 11:04:36;;;;;;;16.33;13.40;;;;;;;-0.56;100.00;97034.38;5098550;28;24458;-73
2023/01/23 11:07:07;;;;;;;14.70;12.02;;;;;;;-0.62;100.00;97047.13;5105863;28;24499;-73
2023/01/23 11:09:46;;;;;;;20.17;12.63;;;;;;;-0.55;100.00;97041.19;5084628;28;24432;-73
2023/01/23 11:12:16;;;;;;;15.38;12.73;;;;;;;-0.65;100.00;97044.56;5096716;28;24507;-73
2023/01/23 11:14:43;;;;;;;15.02;12.13;;;;;;;-0.72;100.00;97037.78;5076929;28;24431;-73
2023/01/23 11:17:16;;;;;;;13.15;11.75;;;;;;;-0.70;100.00;97035.22;5100060;28;25063;-73
2023/01/23 11:19:46;;;;;;;13.65;11.60;;;;;;;-0.51;100.00;97040.34;5102439;28;24430;-73
2023/01/23 11:22:31;;;;;;;13.45;11.95;;;;;;;-0.59;100.00;97029.31;5093708;28;24798;-73
2023/01/23 11:24:58;;;;;;;16.20;12.73;;;;;;;-0.61;100.00;97028.47;5104499;28;24727;-72
2023/01/23 11:27:27;;;;;;;20.05;12.88;;;;;;;-0.66;100.00;97024.22;5100768;28;24433;-73